sensor_id;sensor_type;location;lat;lon;timestamp;P1;durP1;ratioP1;P2;durP2;ratioP2
13331;SDS011;6735;51.456;12.626;2024-03-22T00:01:13;11.73;;;7.17;;
13331;SDS011;6735;51.456;12.626;2024-03-22T00:03:39;13.37;;;7.13;;
13331;SDS011;6735;51.456;12.626;2024-03-22T00:06:04;10.90;;;6.97;;
13331;SDS011;6735;51.456;12.626;2024-03-22T00:08:30;12.90;;;7.77;;
13331;SDS011;6735;51.456;12.626;2024-03-22T00:10:55;11.63;;;6.97;;
13331;SDS011;6735;51.456;12.626;2024-03-22T00:13:21;14.53;;;8.00;;
13331;SDS011;6735;51.456;12.626;2024-03-22T00:15:46;14.67;;;8.50;;
13331;SDS011;6735;51.456;12.626;2024-03-22T00:18:12;12.23;;;7.30;;
13331;SDS011;6735;51.456;12.626;2024-03-22T00:20:37;12.53;;;7.67;;
13331;SDS011;6735;51.456;12.626;2024-03-22T00:23:03;12.40;;;7.97;;
13331;SDS011;6735;51.456;12.626;2024-03-22T00:25:28;14.47;;;8.53;;
13331;SDS011;6735;51.456;12.626;2024-03-22T00:27:55;12.67;;;7.93;;
13331;SDS011;6735;51.456;12.626;2024-03-22T00:30:20;12.63;;;7.23;;
13331;SDS011;6735;51.456;12.626;2024-03-22T00:32:46;13.37;;;7.73;;
13331;SDS011;6735;51.456;12.626;2024-03-22T00:35:12;12.50;;;6.97;;
13331;SDS011;6735;51.456;12.626;2024-03-22T00:37:37;13.50;;;7.03;;
13331;SDS011;6735;51.456;12.626;2024-03-22T00:40:03;13.03;;;7.73;;
13331;SDS011;6735;51.456;12.626;2024-03-22T00:42:29;13.90;;;7.60;;
13331;SDS011;6735;51.456;12.626;2024-03-22T00:44:55;12.33;;;7.17;;
13331;SDS011;6735;51.456;12.626;2024-03-22T00:47:22;12.13;;;7.30;;
13331;SDS011;6735;51.456;12.626;2024-03-22T00:49:47;12.83;;;7.47;;
13331;SDS011;6735;51.456;12.626;2024-03-22T00:52:12;13.07;;;7.63;;
13331;SDS011;6735;51.456;12.626;2024-03-22T00:54:38;13.33;;;7.00;;
13331;SDS011;6735;51.456;12.626;2024-03-22T00:57:05;14.03;;;7.37;;
13331;SDS011;6735;51.456;12.626;2024-03-22T00:59:31;13.70;;;7.27;;
13331;SDS011;6735;51.456;12.626;2024-03-22T01:01:56;12.17;;;7.50;;
13331;SDS011;6735;51.456;12.626;2024-03-22T01:04:22;13.30;;;7.87;;
13331;SDS011;6735;51.456;12.626;2024-03-22T01:06:47;13.00;;;7.60;;
13331;SDS011;6735;51.456;12.626;2024-03-22T01:09:13;13.33;;;7.90;;
13331;SDS011;6735;51.456;12.626;2024-03-22T01:11:39;14.07;;;7.63;;
13331;SDS011;6735;51.456;12.626;2024-03-22T01:14:05;14.93;;;8.33;;
13331;SDS011;6735;51.456;12.626;2024-03-22T01:16:30;13.57;;;7.53;;
13331;SDS011;6735;51.456;12.626;2024-03-22T01:18:56;13.70;;;6.87;;
13331;SDS011;6735;51.456;12.626;2024-03-22T01:21:21;14.40;;;7.70;;
13331;SDS011;6735;51.456;12.626;2024-03-22T01:23:50;10.67;;;6.93;;
13331;SDS011;6735;51.456;12.626;2024-03-22T01:26:16;11.30;;;7.30;;
13331;SDS011;6735;51.456;12.626;2024-03-22T01:28:42;15.63;;;8.40;;
13331;SDS011;6735;51.456;12.626;2024-03-22T01:31:07;13.87;;;7.50;;
13331;SDS011;6735;51.456;12.626;2024-03-22T01:33:33;12.53;;;7.53;;
13331;SDS011;6735;51.456;12.626;2024-03-22T01:35:58;10.93;;;6.87;;
13331;SDS011;6735;51.456;12.626;2024-03-22T01:38:24;12.67;;;7.73;;
13331;SDS011;6735;51.456;12.626;2024-03-22T01:40:49;13.20;;;7.20;;
13331;SDS011;6735;51.456;12.626;2024-03-22T01:43:14;14.07;;;7.67;;
13331;SDS011;6735;51.456;12.626;2024-03-22T01:45:40;12.57;;;7.57;;
13331;SDS011;6735;51.456;12.626;2024-03-22T01:48:06;14.30;;;7.47;;
13331;SDS011;6735;51.456;12.626;2024-03-22T01:50:32;12.13;;;7.07;;
13331;SDS011;6735;51.456;12.626;2024-03-22T01:52:58;14.67;;;7.90;;
13331;SDS011;6735;51.456;12.626;2024-03-22T01:55:23;13.67;;;8.37;;
13331;SDS011;6735;51.456;12.626;2024-03-22T01:57:49;11.47;;;7.70;;
13331;SDS011;6735;51.456;12.626;2024-03-22T02:00:18;13.87;;;8.10;;
13331;SDS011;6735;51.456;12.626;2024-03-22T02:02:44;15.17;;;8.43;;
13331;SDS011;6735;51.456;12.626;2024-03-22T02:05:13;13.90;;;9.03;;
13331;SDS011;6735;51.456;12.626;2024-03-22T02:07:40;15.60;;;8.77;;
13331;SDS011;6735;51.456;12.626;2024-03-22T02:10:05;14.30;;;8.10;;
13331;SDS011;6735;51.456;12.626;2024-03-22T02:12:32;15.53;;;8.57;;
13331;SDS011;6735;51.456;12.626;2024-03-22T02:14:58;15.50;;;8.83;;
13331;SDS011;6735;51.456;12.626;2024-03-22T02:17:24;14.00;;;7.97;;
13331;SDS011;6735;51.456;12.626;2024-03-22T02:19:50;13.63;;;8.37;;
13331;SDS011;6735;51.456;12.626;2024-03-22T02:22:15;16.43;;;8.97;;
13331;SDS011;6735;51.456;12.626;2024-03-22T02:24:41;13.50;;;8.67;;
13331;SDS011;6735;51.456;12.626;2024-03-22T02:27:06;14.73;;;8.07;;
13331;SDS011;6735;51.456;12.626;2024-03-22T02:29:32;16.40;;;8.93;;
13331;SDS011;6735;51.456;12.626;2024-03-22T02:31:57;17.23;;;9.17;;
13331;SDS011;6735;51.456;12.626;2024-03-22T02:34:23;17.37;;;9.23;;
13331;SDS011;6735;51.456;12.626;2024-03-22T02:36:48;18.17;;;9.27;;
13331;SDS011;6735;51.456;12.626;2024-03-22T02:39:14;18.70;;;9.73;;
13331;SDS011;6735;51.456;12.626;2024-03-22T02:41:40;18.10;;;10.27;;
13331;SDS011;6735;51.456;12.626;2024-03-22T02:44:05;16.33;;;9.63;;
13331;SDS011;6735;51.456;12.626;2024-03-22T02:46:31;18.93;;;10.47;;
13331;SDS011;6735;51.456;12.626;2024-03-22T02:48:56;18.83;;;10.20;;
13331;SDS011;6735;51.456;12.626;2024-03-22T02:51:21;18.60;;;9.20;;
13331;SDS011;6735;51.456;12.626;2024-03-22T02:53:47;18.20;;;10.13;;
13331;SDS011;6735;51.456;12.626;2024-03-22T02:56:13;19.13;;;9.63;;
13331;SDS011;6735;51.456;12.626;2024-03-22T02:58:38;24.77;;;11.33;;
13331;SDS011;6735;51.456;12.626;2024-03-22T03:01:03;18.73;;;10.47;;
13331;SDS011;6735;51.456;12.626;2024-03-22T03:03:30;21.60;;;10.53;;
13331;SDS011;6735;51.456;12.626;2024-03-22T03:05:56;16.80;;;10.30;;
13331;SDS011;6735;51.456;12.626;2024-03-22T03:08:21;20.67;;;12.77;;
13331;SDS011;6735;51.456;12.626;2024-03-22T03:10:47;21.83;;;10.20;;
13331;SDS011;6735;51.456;12.626;2024-03-22T03:13:12;21.10;;;11.97;;
13331;SDS011;6735;51.456;12.626;2024-03-22T03:15:38;20.80;;;10.90;;
13331;SDS011;6735;51.456;12.626;2024-03-22T03:18:03;20.93;;;11.87;;
13331;SDS011;6735;51.456;12.626;2024-03-22T03:20:29;22.80;;;11.00;;
13331;SDS011;6735;51.456;12.626;2024-03-22T03:22:54;21.57;;;11.07;;
13331;SDS011;6735;51.456;12.626;2024-03-22T03:25:22;21.57;;;10.77;;
13331;SDS011;6735;51.456;12.626;2024-03-22T03:27:48;21.80;;;11.17;;
13331;SDS011;6735;51.456;12.626;2024-03-22T03:30:13;20.43;;;12.17;;
13331;SDS011;6735;51.456;12.626;2024-03-22T03:32:39;21.47;;;10.80;;
13331;SDS011;6735;51.456;12.626;2024-03-22T03:35:04;20.63;;;11.80;;
13331;SDS011;6735;51.456;12.626;2024-03-22T03:37:30;20.83;;;10.93;;
13331;SDS011;6735;51.456;12.626;2024-03-22T03:39:56;20.73;;;10.97;;
13331;SDS011;6735;51.456;12.626;2024-03-22T03:42:21;21.53;;;10.67;;
13331;SDS011;6735;51.456;12.626;2024-03-22T03:44:47;21.00;;;12.40;;
13331;SDS011;6735;51.456;12.626;2024-03-22T03:47:12;17.67;;;10.63;;
13331;SDS011;6735;51.456;12.626;2024-03-22T03:49:38;24.27;;;12.63;;
13331;SDS011;6735;51.456;12.626;2024-03-22T03:52:03;19.97;;;11.20;;
13331;SDS011;6735;51.456;12.626;2024-03-22T03:54:29;22.90;;;11.87;;
13331;SDS011;6735;51.456;12.626;2024-03-22T03:56:54;20.27;;;11.97;;
13331;SDS011;6735;51.456;12.626;2024-03-22T03:59:20;20.23;;;11.10;;
13331;SDS011;6735;51.456;12.626;2024-03-22T04:01:45;20.23;;;11.07;;
13331;SDS011;6735;51.456;12.626;2024-03-22T04:04:11;20.73;;;11.23;;
13331;SDS011;6735;51.456;12.626;2024-03-22T04:06:37;22.90;;;11.07;;
13331;SDS011;6735;51.456;12.626;2024-03-22T04:09:02;22.13;;;11.37;;
13331;SDS011;6735;51.456;12.626;2024-03-22T04:11:28;19.10;;;10.97;;
13331;SDS011;6735;51.456;12.626;2024-03-22T04:13:54;20.17;;;11.43;;
13331;SDS011;6735;51.456;12.626;2024-03-22T04:16:20;20.40;;;11.47;;
13331;SDS011;6735;51.456;12.626;2024-03-22T04:18:45;21.73;;;12.23;;
13331;SDS011;6735;51.456;12.626;2024-03-22T04:21:11;16.73;;;10.40;;
13331;SDS011;6735;51.456;12.626;2024-03-22T04:23:36;20.00;;;10.67;;
13331;SDS011;6735;51.456;12.626;2024-03-22T04:26:02;18.13;;;10.10;;
13331;SDS011;6735;51.456;12.626;2024-03-22T04:28:28;17.60;;;9.90;;
13331;SDS011;6735;51.456;12.626;2024-03-22T04:31:15;18.20;;;9.73;;
13331;SDS011;6735;51.456;12.626;2024-03-22T04:33:40;15.40;;;9.43;;
13331;SDS011;6735;51.456;12.626;2024-03-22T04:36:06;16.63;;;9.80;;
13331;SDS011;6735;51.456;12.626;2024-03-22T04:38:34;16.53;;;9.80;;
13331;SDS011;6735;51.456;12.626;2024-03-22T04:41:00;14.37;;;9.20;;
13331;SDS011;6735;51.456;12.626;2024-03-22T04:43:26;15.97;;;9.53;;
13331;SDS011;6735;51.456;12.626;2024-03-22T04:45:52;12.13;;;8.43;;
13331;SDS011;6735;51.456;12.626;2024-03-22T04:48:19;18.30;;;8.73;;
13331;SDS011;6735;51.456;12.626;2024-03-22T04:50:46;15.73;;;9.00;;
13331;SDS011;6735;51.456;12.626;2024-03-22T04:53:14;14.03;;;9.30;;
13331;SDS011;6735;51.456;12.626;2024-03-22T04:55:40;12.80;;;8.37;;
13331;SDS011;6735;51.456;12.626;2024-03-22T04:58:11;10.40;;;7.83;;
13331;SDS011;6735;51.456;12.626;2024-03-22T05:00:43;12.93;;;8.80;;
13331;SDS011;6735;51.456;12.626;2024-03-22T05:03:09;13.17;;;8.90;;
13331;SDS011;6735;51.456;12.626;2024-03-22T05:05:35;12.47;;;7.97;;
13331;SDS011;6735;51.456;12.626;2024-03-22T05:08:01;13.90;;;9.63;;
13331;SDS011;6735;51.456;12.626;2024-03-22T05:10:27;14.40;;;9.10;;
13331;SDS011;6735;51.456;12.626;2024-03-22T05:12:56;12.77;;;8.93;;
13331;SDS011;6735;51.456;12.626;2024-03-22T05:15:21;13.00;;;8.10;;
13331;SDS011;6735;51.456;12.626;2024-03-22T05:17:48;13.63;;;8.47;;
13331;SDS011;6735;51.456;12.626;2024-03-22T05:20:14;11.80;;;8.03;;
13331;SDS011;6735;51.456;12.626;2024-03-22T05:22:41;12.17;;;8.30;;
13331;SDS011;6735;51.456;12.626;2024-03-22T05:25:07;12.47;;;8.07;;
13331;SDS011;6735;51.456;12.626;2024-03-22T05:27:33;12.60;;;8.40;;
13331;SDS011;6735;51.456;12.626;2024-03-22T05:29:59;15.57;;;8.10;;
13331;SDS011;6735;51.456;12.626;2024-03-22T05:32:25;10.07;;;6.93;;
13331;SDS011;6735;51.456;12.626;2024-03-22T05:34:51;11.87;;;7.40;;
13331;SDS011;6735;51.456;12.626;2024-03-22T05:37:17;8.60;;;7.00;;
13331;SDS011;6735;51.456;12.626;2024-03-22T05:39:42;10.30;;;7.30;;
13331;SDS011;6735;51.456;12.626;2024-03-22T05:42:08;12.10;;;7.67;;
13331;SDS011;6735;51.456;12.626;2024-03-22T05:44:34;9.23;;;7.37;;
13331;SDS011;6735;51.456;12.626;2024-03-22T05:46:59;8.47;;;6.47;;
13331;SDS011;6735;51.456;12.626;2024-03-22T05:49:25;10.77;;;7.67;;
13331;SDS011;6735;51.456;12.626;2024-03-22T05:51:51;12.10;;;7.07;;
13331;SDS011;6735;51.456;12.626;2024-03-22T05:54:16;12.77;;;6.63;;
13331;SDS011;6735;51.456;12.626;2024-03-22T05:56:42;9.23;;;7.00;;
13331;SDS011;6735;51.456;12.626;2024-03-22T05:59:07;9.83;;;6.97;;
13331;SDS011;6735;51.456;12.626;2024-03-22T06:01:33;9.37;;;6.90;;
13331;SDS011;6735;51.456;12.626;2024-03-22T06:03:58;9.57;;;6.70;;
13331;SDS011;6735;51.456;12.626;2024-03-22T06:06:24;9.03;;;6.57;;
13331;SDS011;6735;51.456;12.626;2024-03-22T06:08:54;7.43;;;6.70;;
13331;SDS011;6735;51.456;12.626;2024-03-22T06:11:20;8.50;;;6.40;;
13331;SDS011;6735;51.456;12.626;2024-03-22T06:13:46;10.10;;;6.17;;
13331;SDS011;6735;51.456;12.626;2024-03-22T06:16:12;13.13;;;6.63;;
13331;SDS011;6735;51.456;12.626;2024-03-22T06:18:37;11.73;;;6.40;;
13331;SDS011;6735;51.456;12.626;2024-03-22T06:21:03;11.20;;;6.57;;
13331;SDS011;6735;51.456;12.626;2024-03-22T06:23:29;9.60;;;5.90;;
13331;SDS011;6735;51.456;12.626;2024-03-22T06:25:55;9.77;;;6.80;;
13331;SDS011;6735;51.456;12.626;2024-03-22T06:28:21;9.73;;;6.63;;
13331;SDS011;6735;51.456;12.626;2024-03-22T06:30:47;8.57;;;6.00;;
13331;SDS011;6735;51.456;12.626;2024-03-22T06:33:13;10.73;;;6.30;;
13331;SDS011;6735;51.456;12.626;2024-03-22T06:35:39;8.33;;;6.20;;
13331;SDS011;6735;51.456;12.626;2024-03-22T06:38:05;11.20;;;6.23;;
13331;SDS011;6735;51.456;12.626;2024-03-22T06:40:32;8.30;;;6.10;;
13331;SDS011;6735;51.456;12.626;2024-03-22T06:42:57;7.73;;;5.93;;
13331;SDS011;6735;51.456;12.626;2024-03-22T06:45:23;9.27;;;6.33;;
13331;SDS011;6735;51.456;12.626;2024-03-22T06:47:49;8.87;;;5.87;;
13331;SDS011;6735;51.456;12.626;2024-03-22T06:50:14;7.47;;;6.20;;
13331;SDS011;6735;51.456;12.626;2024-03-22T06:52:40;9.57;;;6.20;;
13331;SDS011;6735;51.456;12.626;2024-03-22T06:55:05;7.90;;;5.60;;
13331;SDS011;6735;51.456;12.626;2024-03-22T06:57:31;9.63;;;6.37;;
13331;SDS011;6735;51.456;12.626;2024-03-22T06:59:58;7.10;;;5.67;;
13331;SDS011;6735;51.456;12.626;2024-03-22T07:02:24;9.87;;;6.10;;
13331;SDS011;6735;51.456;12.626;2024-03-22T07:04:49;10.97;;;6.07;;
13331;SDS011;6735;51.456;12.626;2024-03-22T07:07:16;9.90;;;6.60;;
13331;SDS011;6735;51.456;12.626;2024-03-22T07:09:41;10.10;;;6.87;;
13331;SDS011;6735;51.456;12.626;2024-03-22T07:12:08;12.93;;;6.43;;
13331;SDS011;6735;51.456;12.626;2024-03-22T07:14:33;9.90;;;7.20;;
13331;SDS011;6735;51.456;12.626;2024-03-22T07:16:59;9.53;;;6.23;;
13331;SDS011;6735;51.456;12.626;2024-03-22T07:19:24;11.30;;;6.33;;
13331;SDS011;6735;51.456;12.626;2024-03-22T07:21:50;8.73;;;6.40;;
13331;SDS011;6735;51.456;12.626;2024-03-22T07:24:15;11.13;;;6.80;;
13331;SDS011;6735;51.456;12.626;2024-03-22T07:26:42;9.23;;;6.43;;
13331;SDS011;6735;51.456;12.626;2024-03-22T07:29:08;10.50;;;7.10;;
13331;SDS011;6735;51.456;12.626;2024-03-22T07:31:33;11.97;;;7.73;;
13331;SDS011;6735;51.456;12.626;2024-03-22T07:33:59;12.20;;;8.07;;
13331;SDS011;6735;51.456;12.626;2024-03-22T07:36:24;13.90;;;8.10;;
13331;SDS011;6735;51.456;12.626;2024-03-22T07:38:51;12.87;;;7.20;;
13331;SDS011;6735;51.456;12.626;2024-03-22T07:41:17;13.70;;;8.73;;
13331;SDS011;6735;51.456;12.626;2024-03-22T07:43:42;13.33;;;8.80;;
13331;SDS011;6735;51.456;12.626;2024-03-22T07:46:08;13.37;;;8.93;;
13331;SDS011;6735;51.456;12.626;2024-03-22T07:48:34;15.07;;;9.33;;
13331;SDS011;6735;51.456;12.626;2024-03-22T07:51:00;13.47;;;8.37;;
13331;SDS011;6735;51.456;12.626;2024-03-22T07:53:26;15.80;;;8.77;;
13331;SDS011;6735;51.456;12.626;2024-03-22T07:55:52;14.60;;;8.67;;
13331;SDS011;6735;51.456;12.626;2024-03-22T07:58:17;15.63;;;8.47;;
13331;SDS011;6735;51.456;12.626;2024-03-22T08:00:44;16.30;;;9.60;;
13331;SDS011;6735;51.456;12.626;2024-03-22T08:03:15;16.53;;;10.00;;
13331;SDS011;6735;51.456;12.626;2024-03-22T08:05:41;17.10;;;10.20;;
13331;SDS011;6735;51.456;12.626;2024-03-22T08:08:07;14.73;;;9.20;;
13331;SDS011;6735;51.456;12.626;2024-03-22T08:10:32;14.90;;;9.23;;
13331;SDS011;6735;51.456;12.626;2024-03-22T08:12:58;18.03;;;10.10;;
13331;SDS011;6735;51.456;12.626;2024-03-22T08:15:25;15.17;;;9.00;;
13331;SDS011;6735;51.456;12.626;2024-03-22T08:17:51;14.80;;;9.60;;
13331;SDS011;6735;51.456;12.626;2024-03-22T08:20:16;16.67;;;9.67;;
13331;SDS011;6735;51.456;12.626;2024-03-22T08:22:41;15.23;;;9.17;;
13331;SDS011;6735;51.456;12.626;2024-03-22T08:25:07;15.23;;;9.37;;
13331;SDS011;6735;51.456;12.626;2024-03-22T08:27:33;17.90;;;9.30;;
13331;SDS011;6735;51.456;12.626;2024-03-22T08:29:59;14.37;;;9.13;;
13331;SDS011;6735;51.456;12.626;2024-03-22T08:32:24;13.40;;;9.30;;
13331;SDS011;6735;51.456;12.626;2024-03-22T08:34:50;14.03;;;9.33;;
13331;SDS011;6735;51.456;12.626;2024-03-22T08:37:15;16.47;;;8.60;;
13331;SDS011;6735;51.456;12.626;2024-03-22T08:39:41;15.00;;;9.63;;
13331;SDS011;6735;51.456;12.626;2024-03-22T08:42:06;16.50;;;9.27;;
13331;SDS011;6735;51.456;12.626;2024-03-22T08:44:32;15.43;;;9.37;;
13331;SDS011;6735;51.456;12.626;2024-03-22T08:46:57;14.63;;;9.53;;
13331;SDS011;6735;51.456;12.626;2024-03-22T08:49:23;14.20;;;9.50;;
13331;SDS011;6735;51.456;12.626;2024-03-22T08:51:48;15.33;;;9.23;;
13331;SDS011;6735;51.456;12.626;2024-03-22T08:54:14;16.00;;;10.63;;
13331;SDS011;6735;51.456;12.626;2024-03-22T08:56:40;15.97;;;8.93;;
13331;SDS011;6735;51.456;12.626;2024-03-22T08:59:05;15.63;;;9.53;;
13331;SDS011;6735;51.456;12.626;2024-03-22T09:01:31;17.33;;;10.57;;
13331;SDS011;6735;51.456;12.626;2024-03-22T09:03:57;15.97;;;10.20;;
13331;SDS011;6735;51.456;12.626;2024-03-22T09:06:22;17.13;;;9.73;;
13331;SDS011;6735;51.456;12.626;2024-03-22T09:08:48;16.07;;;10.03;;
13331;SDS011;6735;51.456;12.626;2024-03-22T09:11:13;16.07;;;10.20;;
13331;SDS011;6735;51.456;12.626;2024-03-22T09:13:39;16.03;;;9.73;;
13331;SDS011;6735;51.456;12.626;2024-03-22T09:16:04;15.53;;;10.37;;
13331;SDS011;6735;51.456;12.626;2024-03-22T09:18:30;13.80;;;9.40;;
13331;SDS011;6735;51.456;12.626;2024-03-22T09:20:56;15.20;;;9.43;;
13331;SDS011;6735;51.456;12.626;2024-03-22T09:23:21;18.53;;;10.43;;
13331;SDS011;6735;51.456;12.626;2024-03-22T09:25:47;16.40;;;10.23;;
13331;SDS011;6735;51.456;12.626;2024-03-22T09:28:13;17.23;;;10.20;;
13331;SDS011;6735;51.456;12.626;2024-03-22T09:30:39;15.90;;;9.23;;
13331;SDS011;6735;51.456;12.626;2024-03-22T09:33:05;16.03;;;9.40;;
13331;SDS011;6735;51.456;12.626;2024-03-22T09:35:35;15.57;;;9.27;;
13331;SDS011;6735;51.456;12.626;2024-03-22T09:38:01;15.33;;;9.60;;
13331;SDS011;6735;51.456;12.626;2024-03-22T09:40:27;15.67;;;9.20;;
13331;SDS011;6735;51.456;12.626;2024-03-22T09:42:53;14.43;;;9.40;;
13331;SDS011;6735;51.456;12.626;2024-03-22T09:45:19;15.17;;;9.50;;
13331;SDS011;6735;51.456;12.626;2024-03-22T09:47:45;15.10;;;9.63;;
13331;SDS011;6735;51.456;12.626;2024-03-22T09:50:13;17.47;;;9.57;;
13331;SDS011;6735;51.456;12.626;2024-03-22T09:52:39;13.80;;;9.33;;
13331;SDS011;6735;51.456;12.626;2024-03-22T09:55:07;13.83;;;9.50;;
13331;SDS011;6735;51.456;12.626;2024-03-22T09:57:34;13.20;;;8.90;;
13331;SDS011;6735;51.456;12.626;2024-03-22T10:00:03;13.20;;;9.07;;
13331;SDS011;6735;51.456;12.626;2024-03-22T10:02:32;13.63;;;9.13;;
13331;SDS011;6735;51.456;12.626;2024-03-22T10:04:58;14.50;;;8.90;;
13331;SDS011;6735;51.456;12.626;2024-03-22T10:07:25;13.17;;;8.50;;
13331;SDS011;6735;51.456;12.626;2024-03-22T10:09:51;12.93;;;8.30;;
13331;SDS011;6735;51.456;12.626;2024-03-22T10:12:17;12.93;;;8.83;;
13331;SDS011;6735;51.456;12.626;2024-03-22T10:14:43;15.33;;;8.87;;
13331;SDS011;6735;51.456;12.626;2024-03-22T10:17:09;11.87;;;7.73;;
13331;SDS011;6735;51.456;12.626;2024-03-22T10:19:35;12.83;;;8.00;;
13331;SDS011;6735;51.456;12.626;2024-03-22T10:22:04;11.83;;;8.37;;
13331;SDS011;6735;51.456;12.626;2024-03-22T10:24:32;11.40;;;8.00;;
13331;SDS011;6735;51.456;12.626;2024-03-22T10:26:58;11.87;;;8.83;;
13331;SDS011;6735;51.456;12.626;2024-03-22T10:29:24;11.83;;;8.13;;
13331;SDS011;6735;51.456;12.626;2024-03-22T10:31:50;13.30;;;7.70;;
13331;SDS011;6735;51.456;12.626;2024-03-22T10:34:17;9.83;;;6.97;;
13331;SDS011;6735;51.456;12.626;2024-03-22T10:36:49;11.30;;;7.13;;
13331;SDS011;6735;51.456;12.626;2024-03-22T10:39:16;11.53;;;7.40;;
13331;SDS011;6735;51.456;12.626;2024-03-22T10:41:44;13.07;;;8.63;;
13331;SDS011;6735;51.456;12.626;2024-03-22T10:44:10;12.60;;;7.90;;
13331;SDS011;6735;51.456;12.626;2024-03-22T10:46:36;10.43;;;7.27;;
13331;SDS011;6735;51.456;12.626;2024-03-22T10:49:02;10.97;;;7.00;;
13331;SDS011;6735;51.456;12.626;2024-03-22T10:51:29;10.27;;;6.83;;
13331;SDS011;6735;51.456;12.626;2024-03-22T10:53:56;9.43;;;6.57;;
13331;SDS011;6735;51.456;12.626;2024-03-22T10:56:23;10.80;;;6.93;;
13331;SDS011;6735;51.456;12.626;2024-03-22T10:58:48;9.00;;;7.20;;
13331;SDS011;6735;51.456;12.626;2024-03-22T11:01:24;8.17;;;6.40;;
13331;SDS011;6735;51.456;12.626;2024-03-22T11:03:50;9.70;;;6.97;;
13331;SDS011;6735;51.456;12.626;2024-03-22T11:06:19;10.20;;;6.60;;
13331;SDS011;6735;51.456;12.626;2024-03-22T11:08:49;10.47;;;6.97;;
13331;SDS011;6735;51.456;12.626;2024-03-22T11:11:15;10.87;;;7.17;;
13331;SDS011;6735;51.456;12.626;2024-03-22T11:13:46;9.37;;;7.07;;
13331;SDS011;6735;51.456;12.626;2024-03-22T11:16:13;8.93;;;6.87;;
13331;SDS011;6735;51.456;12.626;2024-03-22T11:18:39;9.20;;;6.83;;
13331;SDS011;6735;51.456;12.626;2024-03-22T11:21:05;9.80;;;6.97;;
13331;SDS011;6735;51.456;12.626;2024-03-22T11:23:33;10.73;;;6.70;;
13331;SDS011;6735;51.456;12.626;2024-03-22T11:25:59;10.27;;;6.33;;
13331;SDS011;6735;51.456;12.626;2024-03-22T11:28:26;8.10;;;6.47;;
13331;SDS011;6735;51.456;12.626;2024-03-22T11:30:51;8.60;;;6.20;;
13331;SDS011;6735;51.456;12.626;2024-03-22T11:33:17;11.77;;;6.80;;
13331;SDS011;6735;51.456;12.626;2024-03-22T11:35:42;11.77;;;7.07;;
13331;SDS011;6735;51.456;12.626;2024-03-22T11:38:09;12.90;;;7.20;;
13331;SDS011;6735;51.456;12.626;2024-03-22T11:40:34;10.23;;;6.97;;
13331;SDS011;6735;51.456;12.626;2024-03-22T11:43:00;10.00;;;7.17;;
13331;SDS011;6735;51.456;12.626;2024-03-22T11:45:27;10.97;;;7.43;;
13331;SDS011;6735;51.456;12.626;2024-03-22T11:47:53;10.70;;;7.00;;
13331;SDS011;6735;51.456;12.626;2024-03-22T11:50:19;11.23;;;7.90;;
13331;SDS011;6735;51.456;12.626;2024-03-22T11:52:44;10.30;;;7.50;;
13331;SDS011;6735;51.456;12.626;2024-03-22T11:55:13;10.87;;;7.60;;
13331;SDS011;6735;51.456;12.626;2024-03-22T11:57:39;11.53;;;7.73;;
13331;SDS011;6735;51.456;12.626;2024-03-22T12:00:05;10.80;;;7.37;;
13331;SDS011;6735;51.456;12.626;2024-03-22T12:02:35;12.63;;;7.77;;
13331;SDS011;6735;51.456;12.626;2024-03-22T12:05:01;12.03;;;8.20;;
13331;SDS011;6735;51.456;12.626;2024-03-22T12:07:28;10.53;;;7.43;;
13331;SDS011;6735;51.456;12.626;2024-03-22T12:09:53;14.67;;;9.10;;
13331;SDS011;6735;51.456;12.626;2024-03-22T12:12:20;12.93;;;8.43;;
13331;SDS011;6735;51.456;12.626;2024-03-22T12:14:47;11.50;;;7.83;;
13331;SDS011;6735;51.456;12.626;2024-03-22T12:17:12;11.97;;;8.23;;
13331;SDS011;6735;51.456;12.626;2024-03-22T12:19:38;14.60;;;8.63;;
13331;SDS011;6735;51.456;12.626;2024-03-22T12:22:03;13.93;;;9.00;;
13331;SDS011;6735;51.456;12.626;2024-03-22T12:24:31;12.93;;;8.80;;
13331;SDS011;6735;51.456;12.626;2024-03-22T12:26:57;10.23;;;8.00;;
13331;SDS011;6735;51.456;12.626;2024-03-22T12:29:22;10.97;;;7.93;;
13331;SDS011;6735;51.456;12.626;2024-03-22T12:31:48;11.83;;;8.67;;
13331;SDS011;6735;51.456;12.626;2024-03-22T12:34:14;12.33;;;8.53;;
13331;SDS011;6735;51.456;12.626;2024-03-22T12:36:40;10.13;;;7.83;;
13331;SDS011;6735;51.456;12.626;2024-03-22T12:39:05;12.10;;;7.60;;
13331;SDS011;6735;51.456;12.626;2024-03-22T12:41:31;11.43;;;7.57;;
13331;SDS011;6735;51.456;12.626;2024-03-22T12:43:58;11.37;;;8.00;;
13331;SDS011;6735;51.456;12.626;2024-03-22T12:46:24;11.13;;;7.97;;
13331;SDS011;6735;51.456;12.626;2024-03-22T12:48:50;11.53;;;8.47;;
13331;SDS011;6735;51.456;12.626;2024-03-22T12:51:15;13.40;;;8.37;;
13331;SDS011;6735;51.456;12.626;2024-03-22T12:53:41;12.37;;;9.00;;
13331;SDS011;6735;51.456;12.626;2024-03-22T12:56:07;12.20;;;8.73;;
13331;SDS011;6735;51.456;12.626;2024-03-22T12:58:32;10.83;;;9.13;;
13331;SDS011;6735;51.456;12.626;2024-03-22T13:00:58;14.13;;;8.70;;
13331;SDS011;6735;51.456;12.626;2024-03-22T13:03:27;13.87;;;9.10;;
13331;SDS011;6735;51.456;12.626;2024-03-22T13:05:53;12.83;;;9.33;;
13331;SDS011;6735;51.456;12.626;2024-03-22T13:08:19;12.10;;;8.87;;
13331;SDS011;6735;51.456;12.626;2024-03-22T13:10:45;12.87;;;9.77;;
13331;SDS011;6735;51.456;12.626;2024-03-22T13:13:12;13.30;;;9.47;;
13331;SDS011;6735;51.456;12.626;2024-03-22T13:15:40;13.50;;;9.40;;
13331;SDS011;6735;51.456;12.626;2024-03-22T13:18:05;12.77;;;9.63;;
13331;SDS011;6735;51.456;12.626;2024-03-22T13:20:31;12.07;;;9.23;;
13331;SDS011;6735;51.456;12.626;2024-03-22T13:22:58;12.43;;;9.00;;
13331;SDS011;6735;51.456;12.626;2024-03-22T13:25:23;13.20;;;9.73;;
13331;SDS011;6735;51.456;12.626;2024-03-22T13:27:48;13.03;;;9.33;;
13331;SDS011;6735;51.456;12.626;2024-03-22T13:30:14;14.10;;;10.40;;
13331;SDS011;6735;51.456;12.626;2024-03-22T13:32:40;13.83;;;10.37;;
13331;SDS011;6735;51.456;12.626;2024-03-22T13:35:06;11.97;;;9.17;;
13331;SDS011;6735;51.456;12.626;2024-03-22T13:37:32;13.83;;;9.47;;
13331;SDS011;6735;51.456;12.626;2024-03-22T13:39:57;14.53;;;9.50;;
13331;SDS011;6735;51.456;12.626;2024-03-22T13:42:23;13.50;;;9.20;;
13331;SDS011;6735;51.456;12.626;2024-03-22T13:44:49;12.70;;;9.57;;
13331;SDS011;6735;51.456;12.626;2024-03-22T13:47:15;13.63;;;10.20;;
13331;SDS011;6735;51.456;12.626;2024-03-22T13:49:40;13.53;;;9.33;;
13331;SDS011;6735;51.456;12.626;2024-03-22T13:52:09;13.93;;;9.07;;
13331;SDS011;6735;51.456;12.626;2024-03-22T13:54:35;14.87;;;9.83;;
13331;SDS011;6735;51.456;12.626;2024-03-22T13:57:00;13.13;;;9.50;;
13331;SDS011;6735;51.456;12.626;2024-03-22T13:59:29;12.90;;;9.83;;
13331;SDS011;6735;51.456;12.626;2024-03-22T14:01:55;14.20;;;10.43;;
13331;SDS011;6735;51.456;12.626;2024-03-22T14:04:21;11.43;;;9.10;;
13331;SDS011;6735;51.456;12.626;2024-03-22T14:06:47;14.53;;;9.37;;
13331;SDS011;6735;51.456;12.626;2024-03-22T14:09:12;11.80;;;9.60;;
13331;SDS011;6735;51.456;12.626;2024-03-22T14:11:38;11.90;;;9.07;;
13331;SDS011;6735;51.456;12.626;2024-03-22T14:14:04;13.73;;;9.90;;
13331;SDS011;6735;51.456;12.626;2024-03-22T14:16:30;10.97;;;8.50;;
13331;SDS011;6735;51.456;12.626;2024-03-22T14:18:55;11.10;;;8.30;;
13331;SDS011;6735;51.456;12.626;2024-03-22T14:21:21;9.73;;;7.67;;
13331;SDS011;6735;51.456;12.626;2024-03-22T14:23:49;9.37;;;7.60;;
13331;SDS011;6735;51.456;12.626;2024-03-22T14:26:16;11.37;;;7.70;;